Time;durP1;ratioP1;P1;durP2;ratioP2;P2;SDS_P1;SDS_P2;PMS_P1;PMS_P2;Temp;Humidity;BMP_temperature;BMP_pressure;BME280_temperature;BME280_humidity;BME280_pressure;Samples;Min_cycle;Max_cycle;Signal;HPM_P1;HPM_P2
2024/02/25 00:01:34;;;;;;;0.90;0.28;;;5.80;99.90;;;;;;4934150;29;20059;-78
2024/02/25 00:04:01;;;;;;;1.48;0.30;;;5.70;99.90;;;;;;4952064;28;20050;-78
2024/02/25 00:06:28;;;;;;;0.50;0.30;;;5.80;99.90;;;;;;4954509;28;20051;-78
2024/02/25 00:08:55;;;;;;;1.10;0.30;;;5.80;99.90;;;;;;4937197;28;20488;-78
2024/02/25 00:11:22;;;;;;;0.43;0.30;;;5.80;99.90;;;;;;4912742;29;20043;-78
2024/02/25 00:13:49;;;;;;;1.70;0.30;;;5.80;99.90;;;;;;4924723;28;20050;-78
2024/02/25 00:16:16;;;;;;;0.70;0.20;;;5.80;99.90;;;;;;4950549;28;20487;-78
2024/02/25 00:18:44;;;;;;;1.20;0.30;;;5.80;99.90;;;;;;4957783;28;20085;-78
2024/02/25 00:21:11;;;;;;;1.08;0.25;;;5.80;99.90;;;;;;4953460;28;20137;-78
2024/02/25 00:23:38;;;;;;;1.42;0.30;;;5.80;99.90;;;;;;4934001;29;20118;-78
2024/02/25 00:26:05;;;;;;;0.95;0.22;;;5.80;99.90;;;;;;4938396;28;20039;-78
2024/02/25 00:28:32;;;;;;;1.17;0.28;;;5.80;99.90;;;;;;4956528;28;20050;-78
2024/02/25 00:30:59;;;;;;;1.33;0.30;;;5.80;99.90;;;;;;4953285;28;20062;-78
2024/02/25 00:33:26;;;;;;;0.85;0.17;;;5.90;99.90;;;;;;4926305;28;20416;-78
2024/02/25 00:35:53;;;;;;;0.47;0.10;;;5.90;99.90;;;;;;4931411;28;20057;-78
2024/02/25 00:38:23;;;;;;;0.57;0.20;;;5.90;99.90;;;;;;4937651;28;20491;-78
2024/02/25 00:40:50;;;;;;;0.10;0.10;;;5.90;99.90;;;;;;4933535;29;20128;-77
2024/02/25 00:43:27;;;;;;;0.57;0.20;;;5.90;99.90;;;;;;4912066;29;20071;-78
2024/02/25 00:45:54;;;;;;;0.45;0.15;;;6.00;99.90;;;;;;4932636;29;20564;-78
2024/02/25 00:48:21;;;;;;;0.60;0.10;;;5.90;99.90;;;;;;4933994;29;20043;-78
2024/02/25 00:50:48;;;;;;;0.70;0.15;;;6.00;99.90;;;;;;4933972;29;20044;-78
2024/02/25 00:53:16;;;;;;;0.90;0.10;;;6.00;99.90;;;;;;4916662;29;20094;-78
2024/02/25 00:55:44;;;;;;;1.40;0.20;;;6.00;99.90;;;;;;4935757;29;20035;-78
2024/02/25 00:58:11;;;;;;;1.08;0.20;;;6.00;99.90;;;;;;4939912;28;20477;-78
2024/02/25 01:00:38;;;;;;;0.40;0.17;;;6.00;99.90;;;;;;4956164;28;20484;-78
2024/02/25 01:03:05;;;;;;;1.10;0.20;;;6.00;99.90;;;;;;4941561;29;20043;-78
2024/02/25 01:05:32;;;;;;;0.52;0.10;;;6.00;99.90;;;;;;4938593;29;20044;-78
2024/02/25 01:08:00;;;;;;;0.80;0.30;;;6.00;99.90;;;;;;4932635;29;20506;-78
2024/02/25 01:10:27;;;;;;;1.13;0.30;;;6.00;99.90;;;;;;4933640;29;20047;-78
2024/02/25 01:12:54;;;;;;;0.95;0.30;;;6.00;99.90;;;;;;4946026;29;20082;-78
2024/02/25 01:15:21;;;;;;;0.30;0.10;;;6.00;99.90;;;;;;4912173;29;20055;-78
2024/02/25 01:17:48;;;;;;;1.30;0.10;;;6.00;99.90;;;;;;4926389;29;20043;-78
2024/02/25 01:20:15;;;;;;;0.82;0.20;;;6.00;99.90;;;;;;4929676;29;20043;-78
2024/02/25 01:22:42;;;;;;;1.20;0.30;;;5.90;99.90;;;;;;4948117;28;20038;-78
2024/02/25 01:25:11;;;;;;;0.40;0.20;;;5.90;99.90;;;;;;4954983;29;20078;-77
2024/02/25 01:27:39;;;;;;;0.43;0.22;;;5.90;99.90;;;;;;4935239;29;20047;-77
2024/02/25 01:30:07;;;;;;;0.55;0.30;;;5.90;99.90;;;;;;4923520;29;20035;-78
2024/02/25 01:32:34;;;;;;;0.90;0.25;;;5.90;99.90;;;;;;4929721;29;20095;-77
2024/02/25 01:35:01;;;;;;;0.80;0.28;;;5.80;99.90;;;;;;4910401;29;20063;-78
2024/02/25 01:37:29;;;;;;;0.82;0.22;;;5.80;99.90;;;;;;4910115;28;20055;-77
2024/02/25 01:39:56;;;;;;;6.55;0.60;;;5.80;99.90;;;;;;4956203;28;20479;-78
2024/02/25 01:42:23;;;;;;;0.82;0.30;;;5.70;99.90;;;;;;4938931;28;20451;-78
2024/02/25 01:45:00;;;;;;;0.63;0.35;;;5.70;99.90;;;;;;4910598;29;20051;-78
2024/02/25 01:47:30;;;;;;;1.98;0.20;;;5.70;99.90;;;;;;4958092;28;20061;-78
2024/02/25 01:49:58;;;;;;;0.85;0.30;;;5.70;99.90;;;;;;4945453;28;20036;-78
2024/02/25 01:52:25;;;;;;;1.35;0.75;;;5.70;99.90;;;;;;4923251;29;20051;-77
2024/02/25 01:54:53;;;;;;;0.95;0.30;;;5.70;99.90;;;;;;4930699;28;20093;-78
2024/02/25 01:57:20;;;;;;;1.02;0.30;;;5.70;99.90;;;;;;4956770;28;20106;-77
2024/02/25 01:59:48;;;;;;;1.27;0.40;;;5.70;99.90;;;;;;4929379;29;20051;-78
2024/02/25 02:02:15;;;;;;;0.85;0.25;;;5.70;99.90;;;;;;4933019;29;20043;-77
2024/02/25 02:04:43;;;;;;;1.45;0.40;;;5.70;99.90;;;;;;4943252;29;20400;-77
2024/02/25 02:07:11;;;;;;;1.70;0.25;;;5.70;99.90;;;;;;4937292;28;20055;-78
2024/02/25 02:09:38;;;;;;;0.80;0.20;;;5.70;99.90;;;;;;4938251;28;20047;-77
2024/02/25 02:12:06;;;;;;;0.95;0.30;;;5.70;99.90;;;;;;4925647;28;20048;-77
2024/02/25 02:14:33;;;;;;;2.08;0.40;;;5.70;99.90;;;;;;4918104;28;20051;-78
2024/02/25 02:17:03;;;;;;;1.38;0.40;;;5.80;99.90;;;;;;4936454;29;20059;-77
2024/02/25 02:19:30;;;;;;;0.75;0.20;;;5.70;99.90;;;;;;4953738;28;20526;-77
2024/02/25 02:21:58;;;;;;;2.10;0.20;;;5.80;99.90;;;;;;4944915;29;20102;-77
2024/02/25 02:24:25;;;;;;;1.23;0.25;;;5.80;99.90;;;;;;4941883;28;20110;-77
2024/02/25 02:26:52;;;;;;;0.95;0.28;;;5.80;99.90;;;;;;4915099;28;20050;-78
2024/02/25 02:29:19;;;;;;;0.82;0.20;;;5.80;99.90;;;;;;4930413;29;20043;-77
2024/02/25 02:31:46;;;;;;;1.30;0.30;;;5.90;99.90;;;;;;4912564;28;20504;-77
2024/02/25 02:34:13;;;;;;;0.47;0.20;;;5.80;99.90;;;;;;4925683;28;20087;-78
2024/02/25 02:36:40;;;;;;;0.88;0.30;;;5.90;99.90;;;;;;4968807;28;20053;-78
2024/02/25 02:39:07;;;;;;;0.38;0.13;;;5.90;99.90;;;;;;4960332;28;20061;-78
2024/02/25 02:41:35;;;;;;;0.28;0.15;;;5.90;99.90;;;;;;4960315;28;20054;-78
2024/02/25 02:44:02;;;;;;;0.88;0.20;;;5.90;99.90;;;;;;4938274;29;20487;-77
2024/02/25 02:46:29;;;;;;;1.73;0.20;;;5.90;99.90;;;;;;4933936;28;20043;-78
2024/02/25 02:48:56;;;;;;;0.60;0.20;;;6.00;99.90;;;;;;4943803;28;20043;-78
2024/02/25 02:51:24;;;;;;;1.05;0.20;;;6.00;99.90;;;;;;4927699;28;20566;-77
2024/02/25 02:53:51;;;;;;;0.65;0.30;;;6.00;99.90;;;;;;4957465;28;20046;-77
2024/02/25 02:56:18;;;;;;;0.28;0.20;;;6.00;99.90;;;;;;4953912;28;20042;-77
2024/02/25 02:58:48;;;;;;;0.68;0.17;;;6.00;99.90;;;;;;4928265;28;20138;-78
2024/02/25 03:01:16;;;;;;;0.38;0.10;;;6.00;99.90;;;;;;4964665;28;20073;-78
2024/02/25 03:03:43;;;;;;;0.60;0.10;;;6.00;99.90;;;;;;4975821;28;20046;-77
2024/02/25 03:06:10;;;;;;;0.32;0.10;;;6.00;99.90;;;;;;4950888;28;20394;-78
2024/02/25 03:08:40;;;;;;;0.68;0.10;;;6.00;99.90;;;;;;4950138;28;20069;-77
2024/02/25 03:11:07;;;;;;;0.40;0.20;;;6.10;99.90;;;;;;4970918;28;20047;-77
2024/02/25 03:13:34;;;;;;;0.38;0.20;;;6.00;99.90;;;;;;4930434;29;20377;-77
2024/02/25 03:16:01;;;;;;;0.85;0.30;;;6.10;99.90;;;;;;4969866;28;20050;-77
2024/02/25 03:18:28;;;;;;;0.30;0.20;;;6.00;99.90;;;;;;4934818;28;20051;-78
2024/02/25 03:20:55;;;;;;;0.82;0.20;;;6.10;99.90;;;;;;4947171;28;20063;-78
2024/02/25 03:23:22;;;;;;;0.22;0.10;;;6.10;99.90;;;;;;4963942;28;20050;-77
2024/02/25 03:25:50;;;;;;;0.40;0.20;;;6.10;99.90;;;;;;4918849;28;20058;-77
2024/02/25 03:28:17;;;;;;;0.45;0.15;;;6.10;99.90;;;;;;4949719;28;20043;-77
2024/02/25 03:30:44;;;;;;;0.30;0.10;;;6.10;99.90;;;;;;4973030;28;20034;-77
2024/02/25 03:33:11;;;;;;;1.55;0.30;;;6.10;99.90;;;;;;4978250;28;20054;-78
2024/02/25 03:35:39;;;;;;;0.35;0.20;;;6.10;99.90;;;;;;4937496;28;20097;-78
2024/02/25 03:38:06;;;;;;;0.63;0.43;;;6.10;99.90;;;;;;4969131;28;20047;-77
2024/02/25 03:40:33;;;;;;;0.60;0.20;;;6.10;99.90;;;;;;4941261;29;20499;-76
2024/02/25 03:43:00;;;;;;;0.30;0.10;;;6.10;99.90;;;;;;4911857;28;20046;-77
2024/02/25 03:45:27;;;;;;;0.98;0.20;;;6.10;99.90;;;;;;4938263;29;20047;-77
2024/02/25 03:47:54;;;;;;;2.13;0.43;;;6.10;99.90;;;;;;4944331;28;20051;-77
2024/02/25 03:50:21;;;;;;;0.93;0.22;;;6.10;99.90;;;;;;4939566;28;20490;-78
2024/02/25 03:52:49;;;;;;;0.50;0.20;;;6.10;99.90;;;;;;4950025;28;20402;-78
2024/02/25 03:55:16;;;;;;;0.30;0.20;;;6.10;99.90;;;;;;4959284;28;20113;-78
2024/02/25 03:57:43;;;;;;;0.65;0.30;;;6.10;99.90;;;;;;4972351;28;20053;-77
2024/02/25 04:00:10;;;;;;;0.85;0.13;;;6.10;99.90;;;;;;4944127;28;20077;-77
2024/02/25 04:02:38;;;;;;;0.30;0.17;;;6.10;99.90;;;;;;4941993;28;20046;-77
2024/02/25 04:05:05;;;;;;;1.38;0.30;;;6.10;99.90;;;;;;4941645;29;20130;-77
2024/02/25 04:07:33;;;;;;;0.38;0.28;;;6.10;99.90;;;;;;4964949;28;20114;-78
2024/02/25 04:10:00;;;;;;;1.98;0.40;;;6.10;99.90;;;;;;4932904;28;20050;-78
2024/02/25 04:12:27;;;;;;;1.95;0.30;;;6.10;99.90;;;;;;4976368;28;20053;-79
2024/02/25 04:14:54;;;;;;;0.45;0.20;;;6.00;99.90;;;;;;4943740;28;20059;-77
2024/02/25 04:17:23;;;;;;;0.55;0.28;;;6.00;99.90;;;;;;4954321;28;20043;-78
2024/02/25 04:19:53;;;;;;;1.13;0.40;;;5.90;99.90;;;;;;4949934;28;20046;-77
2024/02/25 04:22:21;;;;;;;0.70;0.38;;;6.00;99.90;;;;;;4927898;28;20061;-77
2024/02/25 04:24:48;;;;;;;0.50;0.22;;;5.90;99.90;;;;;;4956379;28;20047;-77
2024/02/25 04:27:15;;;;;;;0.70;0.32;;;5.90;99.90;;;;;;4933871;28;20098;-77
2024/02/25 04:29:43;;;;;;;0.70;0.30;;;5.90;99.90;;;;;;4965033;28;20038;-77
2024/02/25 04:32:11;;;;;;;0.93;0.30;;;5.90;99.90;;;;;;4930139;29;20064;-77
2024/02/25 04:34:38;;;;;;;0.70;0.30;;;5.90;99.90;;;;;;4940051;29;20050;-77
2024/02/25 04:37:05;;;;;;;0.77;0.40;;;5.90;99.90;;;;;;4935376;29;20048;-77
2024/02/25 04:39:35;;;;;;;0.65;0.30;;;5.90;99.90;;;;;;4931547;29;20047;-77
2024/02/25 04:42:03;;;;;;;0.60;0.30;;;5.90;99.90;;;;;;4943652;29;20047;-77
2024/02/25 04:44:30;;;;;;;1.27;0.32;;;5.90;99.90;;;;;;4930283;29;20082;-78
2024/02/25 04:46:57;;;;;;;0.73;0.25;;;5.90;99.90;;;;;;4943553;28;20050;-77
2024/02/25 04:49:25;;;;;;;0.65;0.30;;;5.90;99.90;;;;;;4908911;29;20047;-77
2024/02/25 04:51:52;;;;;;;0.30;0.20;;;6.00;99.90;;;;;;4942297;29;20039;-77
2024/02/25 04:54:19;;;;;;;0.45;0.20;;;6.00;99.90;;;;;;4937482;28;20043;-77
2024/02/25 04:56:46;;;;;;;0.40;0.28;;;6.00;99.90;;;;;;4953045;28;20039;-78
2024/02/25 04:59:13;;;;;;;0.90;0.30;;;6.00;99.90;;;;;;4921319;29;20048;-77
2024/02/25 05:01:47;;;;;;;1.23;0.43;;;6.00;99.90;;;;;;4931653;29;20039;-78
2024/02/25 05:04:14;;;;;;;0.50;0.20;;;6.00;99.90;;;;;;4926361;29;20055;-77
2024/02/25 05:06:41;;;;;;;0.52;0.28;;;6.00;99.90;;;;;;4920860;29;20122;-78
2024/02/25 05:09:08;;;;;;;1.10;0.40;;;6.00;99.90;;;;;;4929698;29;20134;-78
2024/02/25 05:11:35;;;;;;;0.85;0.40;;;6.00;99.90;;;;;;4915327;29;20043;-78
2024/02/25 05:14:03;;;;;;;1.05;0.40;;;6.00;99.90;;;;;;4949790;29;20057;-78
2024/02/25 05:16:30;;;;;;;0.75;0.40;;;6.10;99.90;;;;;;4943151;29;20110;-78
2024/02/25 05:18:57;;;;;;;0.55;0.40;;;6.10;99.90;;;;;;4912296;28;20047;-78
2024/02/25 05:21:24;;;;;;;0.60;0.35;;;6.10;99.90;;;;;;4934257;29;20043;-77
2024/02/25 05:23:51;;;;;;;0.75;0.43;;;6.00;99.90;;;;;;4938927;28;20053;-77
2024/02/25 05:26:18;;;;;;;0.70;0.30;;;6.00;99.90;;;;;;4952850;28;20039;-77
2024/02/25 05:28:45;;;;;;;0.65;0.40;;;6.00;99.90;;;;;;4933140;29;20112;-77
2024/02/25 05:31:14;;;;;;;1.35;0.43;;;5.90;99.90;;;;;;4916177;29;20051;-77
2024/02/25 05:33:41;;;;;;;1.42;0.40;;;5.90;99.90;;;;;;4949066;29;20055;-77
2024/02/25 05:36:09;;;;;;;1.17;0.47;;;5.90;99.90;;;;;;4920293;29;20047;-77
2024/02/25 05:38:36;;;;;;;0.98;0.40;;;5.90;99.90;;;;;;4907526;29;20151;-77
2024/02/25 05:41:07;;;;;;;1.55;0.45;;;5.80;99.90;;;;;;4913933;29;20054;-77
2024/02/25 05:43:34;;;;;;;1.42;0.40;;;5.90;99.90;;;;;;4937505;29;20513;-77
2024/02/25 05:46:01;;;;;;;1.10;0.50;;;5.90;99.90;;;;;;4946505;29;20047;-77
2024/02/25 05:48:28;;;;;;;1.45;0.70;;;5.80;99.90;;;;;;4933347;29;20047;-77
2024/02/25 05:50:55;;;;;;;1.23;0.50;;;5.80;99.90;;;;;;4935435;29;20039;-77
2024/02/25 05:53:22;;;;;;;1.08;0.40;;;5.90;99.90;;;;;;4960790;28;20046;-78
2024/02/25 05:55:49;;;;;;;0.70;0.30;;;5.90;99.90;;;;;;4944354;28;20070;-77
2024/02/25 05:58:16;;;;;;;1.00;0.40;;;5.90;99.90;;;;;;4962916;28;20047;-78
2024/02/25 06:00:43;;;;;;;1.58;0.47;;;5.90;99.90;;;;;;4935273;29;20055;-77
2024/02/25 06:03:10;;;;;;;1.25;0.57;;;5.90;99.90;;;;;;4928541;29;20499;-77
2024/02/25 06:05:37;;;;;;;1.67;0.45;;;5.90;99.90;;;;;;4945176;29;20047;-77
2024/02/25 06:08:05;;;;;;;1.10;0.50;;;6.00;99.90;;;;;;4926910;29;20518;-77
2024/02/25 06:10:32;;;;;;;0.95;0.40;;;6.00;99.90;;;;;;4906827;29;20043;-77
2024/02/25 06:12:59;;;;;;;1.33;0.43;;;6.00;99.90;;;;;;4909841;29;20523;-77
2024/02/25 06:15:26;;;;;;;1.05;0.57;;;6.00;99.90;;;;;;4928171;29;20110;-77
2024/02/25 06:17:53;;;;;;;1.63;0.60;;;6.00;99.90;;;;;;4949948;29;20497;-77
2024/02/25 06:20:20;;;;;;;0.93;0.40;;;6.00;99.90;;;;;;4939268;28;20049;-77
2024/02/25 06:22:48;;;;;;;0.80;0.45;;;6.00;99.90;;;;;;4940852;28;20496;-77
2024/02/25 06:25:16;;;;;;;1.05;0.60;;;6.00;99.90;;;;;;4949697;28;20040;-77
2024/02/25 06:27:43;;;;;;;0.73;0.50;;;6.00;99.90;;;;;;4926438;29;20043;-77
2024/02/25 06:30:10;;;;;;;0.93;0.40;;;6.00;99.90;;;;;;4922556;29;20043;-77
2024/02/25 06:32:38;;;;;;;0.90;0.40;;;6.00;99.90;;;;;;4955392;28;20066;-77
2024/02/25 06:35:06;;;;;;;1.25;0.50;;;6.00;99.90;;;;;;4944677;28;20054;-77
2024/02/25 06:37:33;;;;;;;2.53;1.00;;;6.00;99.90;;;;;;4932933;29;20464;-78
2024/02/25 06:40:01;;;;;;;2.45;0.82;;;6.00;99.90;;;;;;4952982;28;20047;-77
2024/02/25 06:42:28;;;;;;;2.00;0.80;;;6.00;99.90;;;;;;4941503;28;20043;-78
2024/02/25 06:44:55;;;;;;;1.30;0.70;;;5.90;99.90;;;;;;4957193;28;20063;-78
2024/02/25 06:47:22;;;;;;;1.70;0.98;;;5.90;99.90;;;;;;4957066;28;20130;-77
2024/02/25 06:49:49;;;;;;;2.53;0.93;;;5.90;99.90;;;;;;4941441;28;20078;-77
2024/02/25 06:52:16;;;;;;;1.23;0.73;;;6.00;99.90;;;;;;4938529;28;20046;-77
2024/02/25 06:54:43;;;;;;;2.33;0.85;;;5.90;99.90;;;;;;4949823;28;20325;-77
2024/02/25 06:57:15;;;;;;;6.88;1.30;;;6.00;99.90;;;;;;4956906;28;20057;-77
2024/02/25 06:59:42;;;;;;;2.22;1.17;;;5.90;99.90;;;;;;4926008;28;20058;-77
2024/02/25 07:02:10;;;;;;;1.13;0.60;;;5.90;99.90;;;;;;4911908;28;20051;-77
2024/02/25 07:04:37;;;;;;;1.70;0.88;;;5.90;99.90;;;;;;4946835;28;20054;-77
2024/02/25 07:07:04;;;;;;;1.38;0.80;;;6.00;99.90;;;;;;4962699;28;20105;-77
2024/02/25 07:09:32;;;;;;;1.98;0.98;;;6.00;99.90;;;;;;4925054;28;20082;-77
2024/02/25 07:12:00;;;;;;;2.25;0.95;;;6.00;99.90;;;;;;4941018;28;20070;-77
2024/02/25 07:14:30;;;;;;;2.50;1.42;;;6.00;99.90;;;;;;4923191;29;20403;-77
2024/02/25 07:16:57;;;;;;;2.33;1.23;;;6.00;99.90;;;;;;4954412;28;20137;-77
2024/02/25 07:19:24;;;;;;;1.85;1.02;;;6.00;99.90;;;;;;4956689;28;20057;-77
2024/02/25 07:21:51;;;;;;;2.72;1.10;;;5.90;99.90;;;;;;4959629;28;20129;-77
2024/02/25 07:24:18;;;;;;;2.42;1.23;;;5.90;99.90;;;;;;4950992;28;20137;-77
2024/02/25 07:26:45;;;;;;;1.40;0.80;;;5.90;99.90;;;;;;4940336;28;20054;-78
2024/02/25 07:29:13;;;;;;;1.95;1.17;;;5.90;99.90;;;;;;4933757;28;20054;-77
2024/02/25 07:31:40;;;;;;;2.00;1.00;;;6.00;99.90;;;;;;4958535;28;20055;-77
2024/02/25 07:34:07;;;;;;;2.15;1.20;;;6.00;99.90;;;;;;4939758;28;20047;-77
2024/02/25 07:36:35;;;;;;;2.15;1.10;;;6.00;99.90;;;;;;4928997;28;20073;-77
2024/02/25 07:39:03;;;;;;;3.05;1.45;;;6.00;99.90;;;;;;4942651;28;20058;-77
2024/02/25 07:41:30;;;;;;;2.28;1.20;;;6.00;99.90;;;;;;4965845;28;20057;-77
2024/02/25 07:43:57;;;;;;;3.22;1.25;;;6.00;99.90;;;;;;4920909;28;20047;-77
2024/02/25 07:46:26;;;;;;;3.15;1.35;;;6.10;99.90;;;;;;4924695;28;20039;-77
2024/02/25 07:48:54;;;;;;;2.67;1.23;;;6.10;99.90;;;;;;4942665;28;20050;-77
2024/02/25 07:51:22;;;;;;;1.45;0.82;;;6.10;99.90;;;;;;4925567;29;20415;-77
2024/02/25 07:53:50;;;;;;;2.30;1.20;;;6.10;99.90;;;;;;4947121;28;20153;-77
2024/02/25 07:56:22;;;;;;;4.88;1.98;;;6.10;99.90;;;;;;4958061;28;20141;-77
2024/02/25 07:58:49;;;;;;;2.70;1.48;;;6.20;99.90;;;;;;4962922;28;20043;-77
2024/02/25 08:01:16;;;;;;;2.95;1.40;;;6.20;99.90;;;;;;4977291;28;20490;-77
2024/02/25 08:03:43;;;;;;;3.47;1.98;;;6.20;99.90;;;;;;4971486;28;20060;-77
2024/02/25 08:06:10;;;;;;;3.00;1.73;;;6.20;99.90;;;;;;4928733;29;20050;-77
2024/02/25 08:08:38;;;;;;;3.40;1.90;;;6.20;99.90;;;;;;4952856;28;20054;-77
2024/02/25 08:11:05;;;;;;;2.58;1.35;;;6.20;99.90;;;;;;4939086;28;20042;-77
2024/02/25 08:13:32;;;;;;;2.72;1.52;;;6.30;99.90;;;;;;4933435;29;20075;-77
2024/02/25 08:15:59;;;;;;;3.05;1.20;;;6.30;99.90;;;;;;4956846;28;20050;-77
2024/02/25 08:18:26;;;;;;;2.95;1.75;;;6.30;99.90;;;;;;4971050;28;20046;-77
2024/02/25 08:20:53;;;;;;;2.92;1.65;;;6.30;99.90;;;;;;4943806;28;20403;-77
2024/02/25 08:23:20;;;;;;;2.83;1.50;;;6.40;99.90;;;;;;4946842;29;20050;-77
2024/02/25 08:25:47;;;;;;;3.80;1.70;;;6.40;99.90;;;;;;4962301;28;20082;-77
2024/02/25 08:28:14;;;;;;;3.85;2.30;;;6.40;99.90;;;;;;4933516;28;20412;-77
2024/02/25 08:30:41;;;;;;;3.47;2.20;;;6.40;99.90;;;;;;4949732;28;20050;-77
2024/02/25 08:33:08;;;;;;;2.60;1.48;;;6.40;99.90;;;;;;4954408;28;20053;-77
2024/02/25 08:35:35;;;;;;;3.03;1.75;;;6.50;99.90;;;;;;4951071;28;20534;-77
2024/02/25 08:38:03;;;;;;;3.28;2.05;;;6.60;99.90;;;;;;4931861;28;20142;-78
2024/02/25 08:40:31;;;;;;;3.35;1.63;;;6.60;99.90;;;;;;4957555;28;20518;-79
2024/02/25 08:42:58;;;;;;;3.08;1.60;;;6.60;99.90;;;;;;4934298;28;20553;-77
2024/02/25 08:45:25;;;;;;;3.42;2.15;;;6.60;99.90;;;;;;4937207;28;20051;-82
2024/02/25 08:47:53;;;;;;;3.55;2.10;;;6.60;99.90;;;;;;4949928;29;20105;-81
2024/02/25 08:50:20;;;;;;;3.63;2.05;;;6.60;99.90;;;;;;4941923;28;20043;-81
2024/02/25 08:52:47;;;;;;;3.00;1.60;;;6.50;99.90;;;;;;4944882;28;20031;-80
2024/02/25 08:55:14;;;;;;;2.78;1.45;;;6.50;99.90;;;;;;4964373;28;20073;-80
2024/02/25 08:57:41;;;;;;;2.13;1.10;;;6.40;99.90;;;;;;4962161;28;20054;-79
2024/02/25 09:00:09;;;;;;;2.67;1.15;;;6.30;99.90;;;;;;4975045;28;20046;-81
2024/02/25 09:02:37;;;;;;;2.40;1.15;;;6.30;99.90;;;;;;4954093;29;20487;-80
2024/02/25 09:05:05;;;;;;;2.60;0.93;;;6.30;99.90;;;;;;4955463;29;20147;-83
2024/02/25 09:07:35;;;;;;;1.80;0.90;;;6.30;99.90;;;;;;4980877;28;20043;-81
2024/02/25 09:10:05;;;;;;;1.80;0.85;;;6.30;99.90;;;;;;4933563;29;20047;-81
2024/02/25 09:12:34;;;;;;;2.67;0.85;;;6.40;99.90;;;;;;4955758;28;20113;-80
2024/02/25 09:15:01;;;;;;;1.92;0.82;;;6.40;99.90;;;;;;4958926;28;20038;-80
2024/02/25 09:17:28;;;;;;;3.25;1.25;;;6.50;99.90;;;;;;4949945;28;20042;-80
2024/02/25 09:19:55;;;;;;;1.63;0.88;;;6.50;99.90;;;;;;4977018;28;20392;-80
2024/02/25 09:22:22;;;;;;;2.47;1.10;;;6.50;99.90;;;;;;4981792;28;20050;-79
2024/02/25 09:24:51;;;;;;;1.95;0.90;;;6.60;99.90;;;;;;4973633;28;20086;-82
2024/02/25 09:27:18;;;;;;;2.72;1.33;;;6.60;99.90;;;;;;4946067;28;20041;-76
2024/02/25 09:29:46;;;;;;;2.40;1.20;;;6.70;99.90;;;;;;4963583;28;20043;-80
2024/02/25 09:32:13;;;;;;;3.03;1.85;;;6.70;99.90;;;;;;4951507;29;20051;-81
2024/02/25 09:34:40;;;;;;;3.83;1.67;;;6.70;99.90;;;;;;4949630;28;20039;-80
2024/02/25 09:37:07;;;;;;;2.45;1.67;;;6.80;99.90;;;;;;4956881;28;20039;-80
2024/02/25 09:39:34;;;;;;;3.45;1.60;;;6.90;99.90;;;;;;4928202;29;20415;-80
2024/02/25 09:42:08;;;;;;;2.72;1.50;;;7.00;99.90;;;;;;4953867;29;20043;-79
2024/02/25 09:44:36;;;;;;;4.28;1.75;;;7.00;99.90;;;;;;4955995;29;20039;-81
2024/02/25 09:47:04;;;;;;;3.50;2.30;;;7.00;99.90;;;;;;4939258;29;20113;-77
2024/02/25 09:49:34;;;;;;;4.55;2.08;;;6.90;99.90;;;;;;4955834;29;20047;-81
2024/02/25 09:52:03;;;;;;;4.13;2.75;;;6.90;99.90;;;;;;4930920;29;20139;-81
2024/02/25 09:54:30;;;;;;;2.83;1.67;;;6.90;99.90;;;;;;4956013;29;20035;-80
2024/02/25 09:56:57;;;;;;;3.38;1.80;;;6.90;99.90;;;;;;4941348;28;20051;-80
2024/02/25 09:59:25;;;;;;;3.22;1.80;;;6.90;99.90;;;;;;4938791;29;20043;-80
2024/02/25 10:01:52;;;;;;;3.53;2.13;;;7.00;99.90;;;;;;4922664;29;20043;-82
2024/02/25 10:04:23;;;;;;;3.17;1.80;;;7.00;99.90;;;;;;4931906;29;20047;-81
2024/02/25 10:06:50;;;;;;;2.25;1.10;;;7.10;99.90;;;;;;4912526;29;20448;-81
2024/02/25 10:09:34;;;;;;;3.28;1.35;;;7.10;99.90;;;;;;4939026;29;20054;-82
2024/02/25 10:12:02;;;;;;;2.45;1.38;;;7.20;99.90;;;;;;4931639;29;20035;-80
2024/02/25 10:14:31;;;;;;;2.72;1.40;;;7.10;99.90;;;;;;4919837;29;20572;-81
2024/02/25 10:17:03;;;;;;;2.92;1.50;;;7.10;99.90;;;;;;4945886;29;20043;-82
2024/02/25 10:19:31;;;;;;;2.10;1.30;;;7.20;99.90;;;;;;4954293;29;20100;-81
2024/02/25 10:22:14;;;;;;;1.63;0.70;;;7.30;99.90;;;;;;4928461;29;20146;-81
2024/02/25 10:24:43;;;;;;;2.13;1.00;;;7.40;99.90;;;;;;4948381;29;20051;-81
2024/02/25 10:27:13;;;;;;;2.58;1.10;;;7.60;99.90;;;;;;4942515;29;20095;-86
2024/02/25 10:29:53;;;;;;;2.92;0.90;;;7.70;99.90;;;;;;4950037;28;20047;-83
2024/02/25 10:32:24;;;;;;;2.42;1.20;;;7.70;99.90;;;;;;4926667;28;20054;-82
2024/02/25 10:34:53;;;;;;;2.42;1.20;;;7.80;99.90;;;;;;4941333;29;20507;-82
2024/02/25 10:37:22;;;;;;;3.25;1.58;;;7.90;99.90;;;;;;4925078;28;20085;-83
2024/02/25 10:40:06;;;;;;;4.28;1.98;;;7.90;99.90;;;;;;4928508;29;20153;-81
2024/02/25 10:42:43;;;;;;;4.25;2.70;;;8.00;99.90;;;;;;4923324;29;20051;-82
2024/02/25 10:45:14;;;;;;;5.05;2.65;;;8.00;99.90;;;;;;4953710;29;20054;-81
2024/02/25 10:47:43;;;;;;;4.03;1.90;;;8.10;99.90;;;;;;4918978;29;20047;-82
2024/02/25 10:50:11;;;;;;;4.95;2.67;;;8.10;99.90;;;;;;4906473;29;20039;-82
2024/02/25 10:52:39;;;;;;;5.13;3.00;;;8.20;99.90;;;;;;4928363;28;20057;-83
2024/02/25 10:55:08;;;;;;;4.35;3.00;;;8.20;99.90;;;;;;4949986;28;20110;-89
2024/02/25 10:57:40;;;;;;;5.35;2.80;;;8.10;99.90;;;;;;4927428;29;20128;-89
2024/02/25 11:00:11;;;;;;;5.25;2.80;;;8.20;99.90;;;;;;4917282;29;20146;-88
2024/02/25 11:02:40;;;;;;;4.68;2.63;;;8.20;99.90;;;;;;4914185;29;20058;-89
2024/02/25 11:05:08;;;;;;;6.13;3.20;;;8.30;99.90;;;;;;4917079;28;20062;-90
2024/02/25 11:07:36;;;;;;;4.40;2.40;;;8.30;99.90;;;;;;4908224;29;20047;-90
2024/02/25 11:10:16;;;;;;;4.13;2.65;;;8.40;99.90;;;;;;4906741;28;20048;-90
2024/02/25 11:12:44;;;;;;;3.47;2.30;;;8.40;99.90;;;;;;4927144;29;20051;-88
2024/02/25 11:15:21;;;;;;;4.85;2.03;;;8.40;99.90;;;;;;4930256;28;20059;-88
2024/02/25 11:17:50;;;;;;;4.13;2.67;;;8.40;99.90;;;;;;4926389;28;20079;-88
2024/02/25 11:20:22;;;;;;;3.63;2.38;;;8.40;99.90;;;;;;4919884;28;20059;-90
2024/02/25 11:22:50;;;;;;;4.55;1.92;;;8.50;99.90;;;;;;4936036;28;20043;-87
2024/02/25 11:25:34;;;;;;;3.45;2.05;;;8.50;99.90;;;;;;4944864;28;20058;-89
2024/02/25 11:28:12;;;;;;;5.30;2.25;;;8.50;99.90;;;;;;4932625;29;20138;-87
2024/02/25 11:30:45;;;;;;;3.58;2.20;;;8.50;99.90;;;;;;4941445;29;20045;-83
2024/02/25 11:33:33;;;;;;;4.28;2.20;;;8.40;99.90;;;;;;4938957;28;20510;-81
2024/02/25 11:36:05;;;;;;;3.65;1.95;;;8.40;99.90;;;;;;4946277;28;20043;-87
2024/02/25 11:38:32;;;;;;;2.53;1.60;;;8.30;99.90;;;;;;4942011;29;20114;-87
2024/02/25 11:40:59;;;;;;;3.05;2.15;;;8.30;99.90;;;;;;4909314;29;20467;-87
2024/02/25 11:43:27;;;;;;;2.65;1.65;;;8.20;99.90;;;;;;4929072;28;20079;-89
2024/02/25 11:45:57;;;;;;;3.45;2.22;;;8.10;99.90;;;;;;4930032;28;20043;-89
2024/02/25 11:48:24;;;;;;;3.30;1.65;;;8.10;99.90;;;;;;4939322;28;20036;-88
2024/02/25 11:50:51;;;;;;;2.88;1.50;;;8.20;99.90;;;;;;4920467;28;20054;-89
2024/02/25 11:53:18;;;;;;;4.57;2.10;;;8.20;99.90;;;;;;4947216;28;20069;-89
2024/02/25 11:55:50;;;;;;;3.28;1.73;;;8.20;99.90;;;;;;4941849;29;20487;-89
2024/02/25 11:58:18;;;;;;;3.45;1.80;;;8.30;99.90;;;;;;4936489;28;20058;-88
2024/02/25 12:00:45;;;;;;;3.53;1.88;;;8.30;99.90;;;;;;4944851;28;20077;-89
2024/02/25 12:03:12;;;;;;;3.38;2.00;;;8.30;99.90;;;;;;4915530;29;20098;-89
2024/02/25 12:05:42;;;;;;;3.60;1.95;;;8.30;99.90;;;;;;4917597;28;20074;-85
2024/02/25 12:08:14;;;;;;;3.42;1.73;;;8.40;99.90;;;;;;4949936;29;20036;-87
2024/02/25 12:10:41;;;;;;;2.60;1.50;;;8.50;99.90;;;;;;4941562;29;20065;-81
2024/02/25 12:13:09;;;;;;;3.70;2.05;;;8.60;99.90;;;;;;4950576;28;20483;-88
2024/02/25 12:15:40;;;;;;;3.45;1.90;;;8.70;99.90;;;;;;4925020;28;20046;-87
2024/02/25 12:18:09;;;;;;;2.55;1.50;;;8.90;99.90;;;;;;4954703;28;20052;-87
2024/02/25 12:20:37;;;;;;;4.95;2.15;;;8.90;99.90;;;;;;4925519;29;20145;-86
2024/02/25 12:23:09;;;;;;;6.82;2.10;;;9.00;99.90;;;;;;4910540;29;20057;-88
2024/02/25 12:25:37;;;;;;;3.00;1.83;;;9.10;99.90;;;;;;4950952;28;20051;-90
2024/02/25 12:28:11;;;;;;;3.40;1.77;;;9.20;99.90;;;;;;4947701;29;20059;-88
2024/02/25 12:30:47;;;;;;;2.78;1.52;;;9.30;99.90;;;;;;4941731;29;20122;-89
2024/02/25 12:33:17;;;;;;;2.72;1.30;;;9.40;99.90;;;;;;4929263;28;20066;-89
2024/02/25 12:35:45;;;;;;;2.53;1.55;;;9.40;99.90;;;;;;4933787;28;20070;-87
2024/02/25 12:38:14;;;;;;;2.47;1.80;;;9.50;99.90;;;;;;4933323;28;20061;-89
2024/02/25 12:40:44;;;;;;;2.65;1.20;;;9.50;99.90;;;;;;4944597;28;20125;-90
2024/02/25 12:43:14;;;;;;;3.03;1.35;;;9.60;99.90;;;;;;4930123;28;20046;-90
2024/02/25 12:45:43;;;;;;;2.42;1.40;;;9.70;99.90;;;;;;4960279;28;20050;-88
2024/02/25 12:48:10;;;;;;;2.45;1.38;;;9.80;99.90;;;;;;4912411;28;20047;-82
2024/02/25 12:50:37;;;;;;;1.73;1.17;;;9.80;99.90;;;;;;4966566;28;20435;-83
2024/02/25 12:53:06;;;;;;;2.75;1.30;;;9.90;99.90;;;;;;4943197;28;20093;-83
2024/02/25 12:55:35;;;;;;;2.55;0.90;;;9.80;99.90;;;;;;4943166;28;20101;-83
2024/02/25 12:58:03;;;;;;;2.35;0.50;;;9.80;99.90;;;;;;4934146;29;20058;-84
2024/02/25 13:00:31;;;;;;;3.45;0.80;;;9.80;99.90;;;;;;4955075;28;20046;-84
2024/02/25 13:02:58;;;;;;;1.67;0.75;;;9.80;99.90;;;;;;4953349;28;20042;-84